Time;durP1;ratioP1;P1;durP2;ratioP2;P2;SDS_P1;SDS_P2;PMS_P1;PMS_P2;Temp;Humidity;BMP_temperature;BMP_pressure;BME280_temperature;BME280_humidity;BME280_pressure;Samples;Min_cycle;Max_cycle;Signal;HPM_P1;HPM_P2
2021/05/11 00:00:30;;;;;;;16.83;3.83;;;10.80;99.90;;;;;;5014039;28;20427;-62
2021/05/11 00:02:57;;;;;;;16.63;3.10;;;10.80;99.90;;;;;;5013436;28;20045;-63
2021/05/11 00:05:26;;;;;;;15.45;3.38;;;10.80;99.90;;;;;;5013513;28;20034;-62
2021/05/11 00:07:53;;;;;;;12.68;3.40;;;10.70;99.90;;;;;;5012543;28;20120;-62
2021/05/11 00:10:19;;;;;;;17.17;3.45;;;10.60;99.90;;;;;;5013970;28;20042;-61
2021/05/11 00:12:44;;;;;;;15.65;3.45;;;10.70;99.90;;;;;;5012800;28;20034;-62
2021/05/11 00:15:11;;;;;;;15.90;3.28;;;10.70;99.90;;;;;;5013451;28;20049;-61
2021/05/11 00:17:37;;;;;;;18.27;3.15;;;10.60;99.90;;;;;;5013457;28;20052;-63
2021/05/11 00:20:03;;;;;;;17.17;3.50;;;10.60;99.90;;;;;;5013721;28;20038;-61
2021/05/11 00:22:29;;;;;;;12.60;3.25;;;10.60;99.90;;;;;;5012227;28;20072;-62
2021/05/11 00:24:56;;;;;;;13.32;2.80;;;10.50;99.90;;;;;;5013474;28;20498;-60
2021/05/11 00:27:21;;;;;;;31.80;4.38;;;10.50;99.90;;;;;;5012520;28;20052;-62
2021/05/11 00:29:47;;;;;;;16.10;3.17;;;10.50;99.90;;;;;;5013405;28;20029;-61
2021/05/11 00:32:13;;;;;;;19.13;3.22;;;10.60;99.90;;;;;;5012234;28;20038;-63
2021/05/11 00:34:38;;;;;;;11.75;2.83;;;10.50;99.90;;;;;;5012647;28;20109;-64
2021/05/11 00:37:04;;;;;;;12.20;2.42;;;10.50;99.90;;;;;;4994933;28;20053;-63
2021/05/11 00:39:30;;;;;;;9.70;2.47;;;10.40;99.90;;;;;;5012915;28;20515;-62
2021/05/11 00:41:55;;;;;;;16.25;3.78;;;10.40;99.90;;;;;;5012279;28;20120;-61
2021/05/11 00:44:23;;;;;;;14.25;2.92;;;10.30;99.90;;;;;;5013245;28;20066;-62
2021/05/11 00:47:04;;;;;;;14.27;2.70;;;10.30;99.90;;;;;;4994620;28;20053;-62
2021/05/11 00:49:34;;;;;;;13.32;2.90;;;10.20;99.90;;;;;;5011228;28;20030;-62
2021/05/11 00:52:03;;;;;;;18.08;3.15;;;10.20;99.90;;;;;;5011982;28;20038;-61
2021/05/11 00:54:30;;;;;;;11.38;2.78;;;10.10;99.90;;;;;;5012789;28;20038;-61
2021/05/11 00:56:56;;;;;;;11.10;2.70;;;10.10;99.90;;;;;;5011840;28;20042;-60
2021/05/11 00:59:26;;;;;;;14.32;2.90;;;10.10;99.90;;;;;;5012726;28;20037;-63
2021/05/11 01:02:03;;;;;;;14.15;2.88;;;10.00;99.90;;;;;;5012196;28;20082;-61
2021/05/11 01:04:28;;;;;;;15.43;2.90;;;10.00;99.90;;;;;;5010022;28;20125;-61
2021/05/11 01:06:55;;;;;;;13.73;2.80;;;9.90;99.90;;;;;;5011928;28;20173;-61
2021/05/11 01:09:22;;;;;;;10.52;2.85;;;9.90;99.90;;;;;;5012547;28;20038;-61
2021/05/11 01:11:48;;;;;;;12.20;2.85;;;9.90;99.90;;;;;;5011306;28;20060;-62
2021/05/11 01:14:14;;;;;;;10.95;2.30;;;9.90;99.90;;;;;;5012299;28;20487;-62
2021/05/11 01:16:41;;;;;;;14.63;2.75;;;9.80;99.90;;;;;;5011323;28;20044;-61
2021/05/11 01:24:20;;;;;;;16.08;2.97;;;9.70;99.90;;;;;;5006749;28;20042;-62
2021/05/11 01:27:07;;;;;;;11.57;2.38;;;9.70;99.90;;;;;;5005088;28;20380;-63
2021/05/11 01:50:55;;;;;;;9.55;2.55;;;9.10;99.90;;;;;;5011524;28;20046;-61
2021/05/11 02:23:09;;;;;;;7.78;2.13;;;8.40;99.90;;;;;;5010227;28;20112;-62
2021/05/11 02:25:34;;;;;;;11.02;2.20;;;8.30;99.90;;;;;;5011001;28;20033;-62
2021/05/11 02:28:00;;;;;;;12.80;2.40;;;8.30;99.90;;;;;;5010432;28;20038;-61
2021/05/11 02:30:26;;;;;;;6.43;2.17;;;8.20;99.90;;;;;;5011641;28;20087;-62
2021/05/11 02:32:52;;;;;;;10.02;2.53;;;8.10;99.90;;;;;;5010019;28;20046;-62
2021/05/11 02:35:18;;;;;;;9.88;2.22;;;8.10;99.90;;;;;;5010788;28;20380;-61
2021/05/11 02:37:45;;;;;;;7.00;1.90;;;8.00;99.90;;;;;;5010518;28;20038;-62
2021/05/11 02:40:12;;;;;;;9.18;2.28;;;7.90;99.90;;;;;;5010904;28;20048;-62
2021/05/11 02:42:40;;;;;;;5.82;1.92;;;7.80;99.90;;;;;;5010183;28;20116;-62
2021/05/11 02:45:10;;;;;;;10.07;2.20;;;7.80;99.90;;;;;;5010683;28;20045;-62
2021/05/11 02:47:49;;;;;;;10.10;2.20;;;7.70;99.90;;;;;;5009411;28;20129;-63
2021/05/11 02:50:21;;;;;;;11.20;2.38;;;7.70;99.90;;;;;;5011157;28;20073;-61
2021/05/11 02:52:47;;;;;;;8.93;2.22;;;7.60;99.90;;;;;;4981594;28;20455;-61
2021/05/11 02:55:14;;;;;;;6.10;1.70;;;7.40;99.90;;;;;;5010370;28;20046;-61
2021/05/11 02:57:40;;;;;;;10.15;2.25;;;7.40;99.90;;;;;;5009561;28;20092;-61
2021/05/11 03:00:08;;;;;;;8.73;2.40;;;7.40;99.90;;;;;;5010741;28;20443;-62
2021/05/11 03:02:34;;;;;;;43.15;3.65;;;7.30;99.90;;;;;;4992523;28;20049;-62
2021/05/11 03:04:59;;;;;;;8.75;1.92;;;7.30;99.90;;;;;;5010332;28;20038;-62
2021/05/11 03:07:26;;;;;;;11.02;2.55;;;7.30;99.90;;;;;;5009863;28;20050;-61
2021/05/11 03:09:52;;;;;;;9.20;2.25;;;7.20;99.90;;;;;;5010777;28;20029;-61
2021/05/11 03:12:18;;;;;;;10.77;2.50;;;7.10;99.90;;;;;;5009383;28;20042;-61
2021/05/11 03:14:44;;;;;;;8.30;1.98;;;7.10;99.90;;;;;;5014499;28;20396;-60
2021/05/11 03:17:10;;;;;;;8.63;1.95;;;7.00;99.90;;;;;;5014418;28;20037;-63
2021/05/11 03:19:36;;;;;;;6.80;1.80;;;7.00;99.90;;;;;;5014754;28;20040;-61
2021/05/11 03:22:01;;;;;;;10.43;2.53;;;7.00;99.90;;;;;;5014151;28;20100;-61
2021/05/11 03:24:27;;;;;;;8.68;1.92;;;6.90;99.90;;;;;;5013717;28;20040;-62
2021/05/11 03:26:53;;;;;;;11.52;2.03;;;6.90;99.90;;;;;;5013997;28;20068;-61
2021/05/11 03:29:19;;;;;;;9.75;2.35;;;6.90;99.90;;;;;;5014221;28;20395;-62
2021/05/11 03:31:45;;;;;;;10.52;2.20;;;6.90;99.90;;;;;;5012375;28;20030;-61
2021/05/11 03:34:10;;;;;;;7.43;2.17;;;6.80;99.90;;;;;;5013546;28;20053;-61
2021/05/11 03:36:36;;;;;;;9.32;2.20;;;6.90;99.90;;;;;;5014185;28;20042;-62
2021/05/11 03:39:07;;;;;;;9.85;2.33;;;6.90;99.90;;;;;;5013591;28;20046;-61
2021/05/11 03:41:41;;;;;;;7.95;2.00;;;6.90;99.90;;;;;;5014219;28;20037;-63
2021/05/11 03:44:11;;;;;;;12.23;3.10;;;6.90;99.90;;;;;;4995580;28;20046;-62
2021/05/11 03:46:37;;;;;;;12.07;2.67;;;7.00;99.90;;;;;;5013891;28;20034;-62
2021/05/11 03:49:04;;;;;;;15.73;3.05;;;7.10;99.90;;;;;;5013763;28;20037;-60
2021/05/11 03:51:31;;;;;;;9.98;2.35;;;7.20;99.90;;;;;;5013975;28;20034;-62
2021/05/11 03:53:57;;;;;;;16.85;2.88;;;7.20;99.90;;;;;;5013328;28;20120;-61
2021/05/11 03:56:23;;;;;;;15.82;3.38;;;7.20;99.90;;;;;;5014165;28;20037;-62
2021/05/11 03:58:49;;;;;;;20.17;3.25;;;7.30;99.90;;;;;;5012918;28;20041;-62
2021/05/11 04:01:14;;;;;;;18.15;3.40;;;7.30;99.90;;;;;;5014077;28;20045;-61
2021/05/11 04:03:40;;;;;;;17.30;3.47;;;7.30;99.90;;;;;;5013422;28;20042;-62
2021/05/11 04:06:06;;;;;;;10.60;3.08;;;7.30;99.90;;;;;;5013358;28;20053;-62
2021/05/11 04:08:54;;;;;;;16.30;2.80;;;7.30;99.90;;;;;;5013304;28;20070;-62
2021/05/11 04:16:22;;;;;;;17.27;3.25;;;7.50;99.90;;;;;;5010181;28;20065;-62
2021/05/11 04:18:49;;;;;;;17.13;3.33;;;7.50;99.90;;;;;;5012715;28;20034;-61
2021/05/11 04:21:16;;;;;;;12.82;3.67;;;7.60;99.90;;;;;;5013752;28;20042;-62
2021/05/11 04:23:43;;;;;;;22.23;4.55;;;7.60;99.90;;;;;;5012113;28;20227;-61
2021/05/11 04:26:13;;;;;;;17.50;4.13;;;7.60;99.90;;;;;;5013684;28;20042;-61
2021/05/11 04:28:39;;;;;;;28.23;4.30;;;7.60;99.90;;;;;;5012436;28;20488;-63
2021/05/11 04:31:05;;;;;;;17.33;3.60;;;7.60;99.90;;;;;;5013482;28;20045;-61
2021/05/11 04:33:31;;;;;;;15.82;3.60;;;7.60;99.90;;;;;;5011944;28;20145;-62
2021/05/11 04:35:58;;;;;;;21.42;3.72;;;7.60;99.90;;;;;;4995290;28;20133;-62
2021/05/11 04:38:24;;;;;;;20.52;3.63;;;7.70;99.90;;;;;;5012090;28;20452;-62
2021/05/11 04:40:49;;;;;;;25.10;4.28;;;7.70;99.90;;;;;;5013166;28;20038;-62
2021/05/11 04:43:19;;;;;;;19.83;4.30;;;7.80;99.90;;;;;;5012066;28;20042;-61
2021/05/11 04:45:46;;;;;;;16.55;3.65;;;7.80;99.90;;;;;;5013064;28;20558;-62
2021/05/11 04:48:12;;;;;;;19.55;4.13;;;7.90;99.90;;;;;;5012749;28;20041;-62
2021/05/11 04:50:38;;;;;;;15.95;3.67;;;7.90;99.90;;;;;;5013412;28;20136;-61
2021/05/11 04:53:03;;;;;;;16.13;4.03;;;8.00;99.90;;;;;;5011520;28;20077;-62
2021/05/11 04:55:29;;;;;;;15.18;3.67;;;8.10;99.90;;;;;;5013217;28;20120;-62
2021/05/11 04:57:55;;;;;;;18.98;4.18;;;8.10;99.90;;;;;;5012049;28;20038;-62
2021/05/11 05:00:21;;;;;;;16.73;3.85;;;8.10;99.90;;;;;;5012696;28;20061;-61
2021/05/11 05:02:48;;;;;;;21.63;4.90;;;8.20;99.90;;;;;;5012271;28;20101;-63
2021/05/11 05:05:14;;;;;;;24.42;4.78;;;8.30;99.90;;;;;;5013042;28;20526;-61
2021/05/11 05:07:41;;;;;;;17.48;4.00;;;8.40;99.90;;;;;;5012707;28;20029;-62
2021/05/11 05:10:09;;;;;;;21.92;4.05;;;8.50;99.90;;;;;;5011809;28;20041;-61
2021/05/11 05:12:35;;;;;;;17.38;4.00;;;8.60;99.90;;;;;;5012691;28;20038;-61
2021/05/11 05:15:02;;;;;;;33.25;4.53;;;8.70;99.90;;;;;;5012147;28;20048;-61
2021/05/11 05:17:28;;;;;;;16.98;3.80;;;8.70;99.90;;;;;;5012597;28;20065;-61
2021/05/11 05:19:53;;;;;;;31.67;5.93;;;8.80;99.90;;;;;;5011322;28;20069;-62
2021/05/11 05:22:20;;;;;;;27.35;4.53;;;8.90;99.90;;;;;;5012462;28;20045;-61
2021/05/11 05:24:52;;;;;;;22.25;4.07;;;9.00;99.90;;;;;;5011828;28;20042;-60
2021/05/11 05:27:23;;;;;;;35.00;4.85;;;9.10;99.90;;;;;;4994732;28;20547;-61
2021/05/11 05:29:49;;;;;;;18.55;4.07;;;9.20;99.90;;;;;;5012705;28;20422;-62
2021/05/11 05:32:16;;;;;;;22.70;4.45;;;9.30;99.90;;;;;;5011782;28;20100;-61
2021/05/11 05:34:42;;;;;;;19.08;4.22;;;9.30;99.90;;;;;;5011245;28;20448;-61
2021/05/11 05:37:08;;;;;;;20.80;4.15;;;9.30;99.90;;;;;;5011527;28;20064;-61
2021/05/11 05:39:39;;;;;;;35.15;5.60;;;9.40;99.90;;;;;;5011031;28;20048;-61
2021/05/11 05:42:05;;;;;;;21.65;3.70;;;9.50;99.90;;;;;;4994444;28;20458;-61
2021/05/11 05:44:31;;;;;;;29.65;4.80;;;9.50;99.90;;;;;;5010600;28;20113;-60
2021/05/11 05:46:57;;;;;;;33.42;4.35;;;9.50;99.90;;;;;;5012274;28;20070;-60
2021/05/11 05:49:26;;;;;;;30.60;3.88;;;9.60;99.90;;;;;;5011114;28;20064;-61
2021/05/11 05:51:51;;;;;;;30.95;4.65;;;9.60;99.90;;;;;;5011914;28;20034;-61
2021/05/11 05:54:17;;;;;;;24.85;4.38;;;9.70;99.90;;;;;;5011119;28;20063;-61
2021/05/11 05:56:43;;;;;;;23.88;4.50;;;9.70;99.90;;;;;;5011467;28;20034;-62
2021/05/11 05:59:09;;;;;;;27.90;5.60;;;9.80;99.90;;;;;;5010988;28;20402;-60
2021/05/11 06:01:35;;;;;;;21.38;4.80;;;9.90;99.90;;;;;;5011961;28;20048;-61
2021/05/11 06:04:14;;;;;;;20.35;4.35;;;10.00;99.90;;;;;;5010624;28;20033;-61
2021/05/11 06:06:41;;;;;;;27.33;4.63;;;10.00;99.90;;;;;;5011802;28;20038;-62
2021/05/11 06:09:21;;;;;;;36.95;6.22;;;10.10;99.90;;;;;;5011062;28;20071;-61
2021/05/11 06:12:06;;;;;;;39.72;8.38;;;10.20;99.90;;;;;;5011047;28;20041;-61
2021/05/11 06:17:39;;;;;;;28.63;5.20;;;10.40;99.90;;;;;;4967378;28;20050;-61
2021/05/11 06:20:06;;;;;;;45.05;6.63;;;10.50;99.90;;;;;;4967067;28;20121;-61
2021/05/11 06:22:32;;;;;;;36.72;5.68;;;10.70;99.90;;;;;;4985931;28;20081;-63
2021/05/11 06:24:59;;;;;;;34.92;5.40;;;10.80;99.90;;;;;;5010437;28;20057;-62
2021/05/11 06:27:25;;;;;;;36.55;5.28;;;11.00;99.90;;;;;;5010836;28;20108;-61
2021/05/11 06:29:56;;;;;;;29.70;5.35;;;11.10;99.90;;;;;;5014498;28;20081;-62
2021/05/11 06:32:22;;;;;;;24.67;5.57;;;11.10;99.90;;;;;;5015711;28;20451;-62
2021/05/11 06:34:57;;;;;;;48.22;6.57;;;11.20;99.90;;;;;;5009089;28;20140;-61
2021/05/11 06:37:23;;;;;;;45.63;6.25;;;11.40;99.90;;;;;;5009774;28;20105;-62
2021/05/11 06:39:50;;;;;;;35.75;6.10;;;11.50;99.90;;;;;;5009481;28;20070;-63
2021/05/11 06:42:17;;;;;;;38.20;7.18;;;11.60;99.90;;;;;;5010625;28;20034;-62
2021/05/11 06:55:07;;;;;;;36.83;5.57;;;12.20;99.90;;;;;;5008724;28;20061;-62
2021/05/11 06:57:33;;;;;;;37.13;5.47;;;12.30;99.90;;;;;;4992355;28;20061;-62
2021/05/11 06:59:59;;;;;;;46.53;5.88;;;12.40;99.90;;;;;;5009882;28;20507;-62
2021/05/11 07:02:24;;;;;;;47.20;6.38;;;12.60;99.90;;;;;;5005214;28;20403;-62
2021/05/11 07:04:53;;;;;;;32.42;5.88;;;12.80;99.90;;;;;;5009796;28;20045;-62
2021/05/11 07:07:20;;;;;;;32.58;5.53;;;13.00;99.90;;;;;;5010049;28;20030;-62
2021/05/11 07:10:04;;;;;;;26.45;4.82;;;13.30;99.90;;;;;;5008162;28;20446;-61
2021/05/11 07:15:14;;;;;;;20.90;4.63;;;13.60;99.90;;;;;;5007565;28;20057;-61
2021/05/11 07:17:40;;;;;;;31.15;4.75;;;13.80;99.90;;;;;;5010890;28;20033;-63
2021/05/11 07:20:05;;;;;;;35.45;5.05;;;14.10;99.90;;;;;;4996994;28;20042;-65
2021/05/11 07:22:31;;;;;;;21.75;4.45;;;14.30;99.90;;;;;;5010115;28;20060;-63
2021/05/11 07:24:58;;;;;;;33.08;5.05;;;14.70;99.90;;;;;;5009847;28;20054;-63
2021/05/11 07:29:56;;;;;;;30.20;5.03;;;14.60;99.90;;;;;;5008699;28;20038;-64
2021/05/11 07:32:22;;;;;;;19.02;3.25;;;14.70;99.90;;;;;;5010157;28;20034;-63
2021/05/11 07:34:52;;;;;;;23.63;3.85;;;14.90;99.90;;;;;;5007016;28;20057;-64
2021/05/11 07:37:17;;;;;;;29.10;4.53;;;15.30;99.90;;;;;;5009153;28;20114;-64
2021/05/11 07:39:46;;;;;;;29.55;5.28;;;15.50;99.90;;;;;;5009309;28;20121;-63
2021/05/11 07:42:12;;;;;;;23.70;5.57;;;15.90;99.90;;;;;;5014870;28;20042;-63
2021/05/11 07:44:44;;;;;;;16.02;3.55;;;16.10;99.90;;;;;;5009651;28;20130;-63
2021/05/11 08:14:23;;;;;;;18.73;3.97;;;15.10;99.90;;;;;;5012278;28;20103;-62
2021/05/11 08:16:25;;;;;;;17.48;3.65;;;14.80;99.90;;;;;;5012124;28;20041;-63
2021/05/11 08:19:03;;;;;;;15.85;3.13;;;14.70;99.90;;;;;;5013614;28;20411;-63
2021/05/11 08:27:31;;;;;;;15.17;3.60;;;14.50;99.90;;;;;;5013599;28;20056;-64
2021/05/11 08:29:27;;;;;;;17.63;3.30;;;14.50;99.90;;;;;;5001204;28;20038;-63
2021/05/11 08:31:53;;;;;;;17.65;3.70;;;14.50;99.90;;;;;;5012640;28;20060;-62
2021/05/11 08:34:19;;;;;;;15.15;3.42;;;14.50;99.90;;;;;;5012449;28;20053;-63
2021/05/11 08:36:45;;;;;;;17.48;5.38;;;14.60;99.90;;;;;;5013262;28;20029;-64
2021/05/11 08:39:10;;;;;;;13.95;3.38;;;14.70;99.90;;;;;;5012904;28;20499;-62
2021/05/11 08:41:36;;;;;;;46.78;5.00;;;14.80;99.90;;;;;;5012969;28;20484;-62
2021/05/11 08:44:03;;;;;;;20.48;3.70;;;14.90;99.90;;;;;;5012796;28;20060;-62
2021/05/11 08:46:29;;;;;;;23.23;3.28;;;15.00;99.90;;;;;;5012426;28;20045;-62
2021/05/11 08:48:57;;;;;;;29.70;3.70;;;15.10;99.90;;;;;;5010778;28;20391;-63
2021/05/11 08:51:30;;;;;;;31.83;3.65;;;15.50;99.90;;;;;;5012169;28;20491;-64
2021/05/11 09:05:03;;;;;;;;;;;15.90;99.90;;;;;;4955792;28;20043;-63
2021/05/11 09:26:58;;;;;;;14.93;2.80;;;18.30;99.90;;;;;;5017923;28;20424;-61
2021/05/11 09:54:41;;;;;;;13.02;3.17;;;17.40;99.90;;;;;;5013087;28;20431;-63
2021/05/11 09:56:42;;;;;;;13.80;3.47;;;17.50;99.90;;;;;;4994936;28;20071;-64
2021/05/11 10:49:27;;;;;;;24.27;3.20;;;18.30;99.90;;;;;;5001821;28;20073;-63
2021/05/11 10:52:22;;;;;;;10.32;2.53;;;18.30;99.90;;;;;;4992668;28;20046;-62
2021/05/11 10:55:02;;;;;;;22.10;3.60;;;18.30;99.90;;;;;;5001431;28;20362;-63
2021/05/11 10:57:36;;;;;;;13.80;3.03;;;18.30;99.90;;;;;;4998976;28;20038;-63
2021/05/11 11:00:31;;;;;;;15.25;3.13;;;18.20;99.90;;;;;;5004802;28;20034;-63
2021/05/11 11:03:25;;;;;;;11.27;3.20;;;18.10;99.90;;;;;;4997186;28;20038;-63
2021/05/11 11:06:01;;;;;;;14.52;4.13;;;18.10;99.90;;;;;;5001273;28;20045;-63
2021/05/11 11:08:32;;;;;;;14.38;3.60;;;18.10;99.90;;;;;;5009496;28;20053;-62
2021/05/11 11:11:20;;;;;;;20.38;3.95;;;18.00;99.90;;;;;;5009152;28;20038;-63
2021/05/11 11:13:53;;;;;;;20.40;5.72;;;17.90;99.90;;;;;;5004447;28;20049;-64
2021/05/11 11:16:21;;;;;;;10.10;2.63;;;17.80;99.90;;;;;;5008697;28;20496;-63
2021/05/11 11:18:47;;;;;;;11.25;3.15;;;17.60;99.90;;;;;;5008117;28;20088;-63
2021/05/11 11:23:49;;;;;;;12.43;2.80;;;17.20;99.90;;;;;;5010156;28;20046;-63
2021/05/11 11:26:30;;;;;;;11.80;3.55;;;17.00;99.90;;;;;;5009407;28;21585;-62
2021/05/11 11:29:08;;;;;;;11.80;3.70;;;16.50;99.90;;;;;;5003656;28;20129;-62
2021/05/11 11:31:37;;;;;;;20.95;4.45;;;16.00;99.90;;;;;;5008897;28;20037;-63
2021/05/11 11:34:16;;;;;;;17.02;5.18;;;15.60;99.90;;;;;;5018139;28;20037;-63
2021/05/11 11:36:59;;;;;;;22.90;5.85;;;15.40;99.90;;;;;;5012851;28;20125;-63
2021/05/11 11:39:26;;;;;;;15.10;4.70;;;15.30;99.90;;;;;;5013351;28;20042;-63
2021/05/11 11:41:54;;;;;;;15.20;4.30;;;15.00;99.90;;;;;;5021786;28;20042;-62
2021/05/11 11:44:22;;;;;;;14.63;3.60;;;14.90;99.90;;;;;;5018595;28;20444;-65
2021/05/11 11:46:56;;;;;;;43.30;8.93;;;14.80;99.90;;;;;;4998253;28;20480;-62
2021/05/11 11:49:25;;;;;;;20.85;4.65;;;14.80;99.90;;;;;;5014628;28;20060;-64
2021/05/11 11:52:05;;;;;;;10.85;3.13;;;14.80;99.90;;;;;;4992083;28;20557;-63
2021/05/11 11:59:54;;;;;;;12.43;2.58;;;14.90;99.90;;;;;;5010819;28;20045;-65
2021/05/11 12:02:20;;;;;;;12.27;3.03;;;14.80;99.90;;;;;;4994838;28;20045;-63
2021/05/11 12:04:47;;;;;;;11.80;2.42;;;14.90;99.90;;;;;;5013911;28;20092;-65
2021/05/11 12:07:15;;;;;;;15.35;2.67;;;15.10;99.90;;;;;;5014310;28;20034;-64
2021/05/11 12:09:42;;;;;;;7.43;2.25;;;15.30;99.90;;;;;;5013596;28;20060;-62
2021/05/11 12:12:10;;;;;;;8.88;2.45;;;15.40;99.90;;;;;;5012547;28;20045;-64
2021/05/11 12:14:39;;;;;;;8.50;2.13;;;15.50;99.90;;;;;;5010717;28;20068;-62
2021/05/11 12:17:05;;;;;;;6.57;2.10;;;15.50;99.90;;;;;;5012092;28;20041;-63
2021/05/11 12:19:31;;;;;;;10.13;2.38;;;15.40;99.90;;;;;;5013298;28;20052;-62
2021/05/11 12:22:05;;;;;;;5.82;2.60;;;15.50;99.90;;;;;;5012600;28;20384;-62
2021/05/11 12:24:40;;;;;;;11.43;2.40;;;15.50;99.90;;;;;;5013543;28;20565;-62
2021/05/11 12:27:22;;;;;;;10.50;2.90;;;15.60;99.90;;;;;;5007596;28;20038;-65
2021/05/11 12:30:05;;;;;;;11.38;3.22;;;15.60;99.90;;;;;;5013000;28;20667;-62
2021/05/11 12:32:35;;;;;;;10.07;2.60;;;15.60;99.90;;;;;;5012364;28;20471;-61
2021/05/11 12:35:06;;;;;;;14.70;3.90;;;15.60;99.90;;;;;;5012935;28;20439;-62
2021/05/11 12:37:53;;;;;;;12.05;3.25;;;15.50;99.90;;;;;;5012180;28;20037;-62
2021/05/11 12:40:28;;;;;;;14.20;3.13;;;15.30;99.90;;;;;;5013014;28;20029;-63
2021/05/11 12:42:56;;;;;;;10.75;3.03;;;15.20;99.90;;;;;;5012311;28;20395;-63
2021/05/11 12:45:23;;;;;;;10.40;2.80;;;15.20;99.90;;;;;;5012462;28;20026;-62
2021/05/11 12:47:55;;;;;;;10.10;2.72;;;15.20;99.90;;;;;;5012339;28;20038;-63
2021/05/11 12:50:29;;;;;;;11.65;2.88;;;15.20;99.90;;;;;;5012964;28;20525;-62
2021/05/11 12:52:59;;;;;;;13.15;3.67;;;15.30;99.90;;;;;;5012102;28;20609;-65
2021/05/11 13:26:04;;;;;;;16.30;3.30;;;16.30;99.90;;;;;;5004680;28;20049;-61
2021/05/11 13:31:00;;;;;;;10.40;3.67;;;16.50;99.90;;;;;;5012403;28;20120;-61
2021/05/11 13:35:55;;;;;;;14.88;2.50;;;16.60;99.90;;;;;;5012577;28;20041;-61
2021/05/11 13:38:22;;;;;;;13.40;3.10;;;16.60;99.90;;;;;;5011946;28;20041;-61
2021/05/11 13:40:48;;;;;;;9.38;2.50;;;16.70;99.90;;;;;;5012114;28;20030;-61
2021/05/11 13:43:14;;;;;;;10.13;3.10;;;16.80;99.90;;;;;;5010983;28;20048;-62
2021/05/11 13:45:40;;;;;;;13.23;3.75;;;16.80;99.90;;;;;;4998023;28;20038;-63
2021/05/11 13:48:19;;;;;;;8.80;2.20;;;16.80;99.90;;;;;;5011534;28;20034;-62
2021/05/11 13:53:11;;;;;;;10.05;2.67;;;17.10;99.90;;;;;;5011190;28;20038;-63
2021/05/11 14:03:40;;;;;;;8.90;2.38;;;17.80;99.90;;;;;;5009531;28;20095;-62
2021/05/11 14:06:05;;;;;;;9.43;2.28;;;17.90;99.90;;;;;;5011802;28;20042;-61
2021/05/11 14:08:31;;;;;;;6.40;2.03;;;17.90;99.90;;;;;;5011009;28;20045;-62
2021/05/11 14:10:56;;;;;;;9.00;2.60;;;17.70;99.90;;;;;;5026075;28;20476;-61
2021/05/11 14:13:22;;;;;;;11.48;2.53;;;17.60;99.90;;;;;;5010855;28;20044;-64
2021/05/11 14:15:48;;;;;;;10.65;2.33;;;17.30;99.90;;;;;;5012004;28;20037;-61
2021/05/11 14:18:14;;;;;;;10.38;3.28;;;17.20;99.90;;;;;;4992488;28;20427;-61
2021/05/11 14:20:39;;;;;;;18.08;3.25;;;17.20;99.90;;;;;;5010814;28;20054;-62
2021/05/11 14:23:05;;;;;;;7.97;2.60;;;17.20;99.90;;;;;;5007908;28;20112;-63
2021/05/11 14:25:31;;;;;;;10.35;2.00;;;17.50;99.90;;;;;;5011159;28;20030;-63
2021/05/11 14:27:56;;;;;;;8.02;1.60;;;17.70;99.90;;;;;;5009738;28;20573;-62
2021/05/11 14:30:22;;;;;;;13.65;2.20;;;17.90;99.90;;;;;;5010842;28;20076;-63
2021/05/11 14:32:48;;;;;;;18.30;2.03;;;18.10;99.90;;;;;;5009797;28;20038;-62
2021/05/11 14:35:14;;;;;;;8.82;2.38;;;18.20;99.90;;;;;;5009602;28;20069;-63
2021/05/11 14:37:39;;;;;;;13.57;3.08;;;18.20;99.90;;;;;;5010373;28;20121;-63
2021/05/11 14:40:06;;;;;;;11.27;2.67;;;18.40;99.90;;;;;;5010682;28;20483;-62
2021/05/11 14:42:31;;;;;;;16.73;2.40;;;18.50;99.90;;;;;;5010185;28;20040;-62
2021/05/11 14:44:57;;;;;;;13.15;2.03;;;18.70;99.90;;;;;;5010585;28;20033;-63
2021/05/11 14:47:23;;;;;;;10.50;2.08;;;18.60;99.90;;;;;;5010573;28;20030;-62
2021/05/11 14:49:49;;;;;;;14.63;2.20;;;18.40;99.90;;;;;;5011327;28;20038;-62
2021/05/11 14:52:14;;;;;;;14.07;2.20;;;18.30;99.90;;;;;;5009571;28;20050;-61
2021/05/11 14:54:41;;;;;;;8.38;1.83;;;18.10;99.90;;;;;;5014665;28;20025;-62
2021/05/11 14:57:07;;;;;;;25.25;2.15;;;18.00;99.90;;;;;;5012743;28;20281;-62
2021/05/11 14:59:32;;;;;;;12.40;2.10;;;17.90;99.90;;;;;;5010312;28;20507;-62
2021/05/11 15:01:58;;;;;;;19.33;2.55;;;17.90;99.90;;;;;;5010015;28;20042;-61
2021/05/11 15:04:24;;;;;;;7.82;1.20;;;18.00;99.90;;;;;;5012595;28;20380;-62
2021/05/11 15:06:50;;;;;;;17.40;1.98;;;18.10;99.90;;;;;;5022210;28;20453;-61
2021/05/11 15:09:16;;;;;;;6.40;1.58;;;18.00;99.90;;;;;;5019527;28;20479;-61
2021/05/11 15:11:42;;;;;;;8.35;1.60;;;18.00;99.90;;;;;;5010648;28;20080;-60
2021/05/11 15:14:07;;;;;;;8.18;1.63;;;18.10;99.90;;;;;;5009184;28;20885;-62
2021/05/11 15:16:37;;;;;;;14.27;1.77;;;18.30;99.90;;;;;;5010469;28;20033;-61
2021/05/11 15:19:03;;;;;;;6.72;1.52;;;18.30;99.90;;;;;;5009818;28;20038;-62
2021/05/11 15:21:28;;;;;;;7.15;1.95;;;18.30;99.90;;;;;;5017008;28;20136;-61
2021/05/11 15:23:54;;;;;;;8.50;1.83;;;18.40;99.90;;;;;;5009429;28;20053;-63
2021/05/11 15:26:21;;;;;;;11.13;1.80;;;18.40;99.90;;;;;;5009953;28;20041;-62
2021/05/11 15:28:46;;;;;;;6.47;1.60;;;18.50;99.90;;;;;;4999690;28;20084;-60
2021/05/11 15:31:12;;;;;;;4.88;1.60;;;18.60;99.90;;;;;;4994226;28;20050;-60
2021/05/11 15:33:38;;;;;;;8.65;1.48;;;18.70;99.90;;;;;;5014057;28;20125;-60
2021/05/11 15:36:04;;;;;;;12.63;2.13;;;18.70;99.90;;;;;;5012611;28;20364;-61
2021/05/11 15:38:31;;;;;;;5.93;1.42;;;18.70;99.90;;;;;;5009323;28;20034;-61
2021/05/11 15:40:57;;;;;;;8.20;1.75;;;18.60;99.90;;;;;;5014402;28;20466;-63
2021/05/11 15:43:24;;;;;;;10.10;2.08;;;18.60;99.90;;;;;;5008641;28;20053;-61
2021/05/11 15:45:50;;;;;;;9.35;1.85;;;18.70;99.90;;;;;;5009584;28;20034;-62
2021/05/11 15:48:16;;;;;;;12.23;1.80;;;18.60;99.90;;;;;;5002667;28;20084;-62
2021/05/11 15:50:46;;;;;;;12.23;1.92;;;18.50;99.90;;;;;;5010359;28;20038;-61
2021/05/11 15:53:14;;;;;;;19.17;2.05;;;18.30;99.90;;;;;;5009755;28;20080;-61
2021/05/11 15:55:42;;;;;;;10.32;2.00;;;18.30;99.90;;;;;;5009558;28;20053;-61
2021/05/11 15:58:09;;;;;;;10.75;2.15;;;18.10;99.90;;;;;;5013906;28;20472;-60
2021/05/11 16:00:36;;;;;;;6.05;1.38;;;18.00;99.90;;;;;;5009291;28;20184;-60
2021/05/11 16:03:03;;;;;;;10.77;1.95;;;17.80;99.90;;;;;;5008069;28;20034;-61
2021/05/11 16:05:35;;;;;;;23.38;2.53;;;17.80;99.90;;;;;;5009923;28;20033;-61
2021/05/11 16:08:05;;;;;;;10.70;2.47;;;17.70;99.90;;;;;;5009516;28;20129;-60
2021/05/11 16:10:31;;;;;;;10.55;1.90;;;17.70;99.90;;;;;;5009991;28;20087;-60
2021/05/11 16:12:56;;;;;;;6.93;1.98;;;17.70;99.90;;;;;;5009292;28;20147;-59
2021/05/11 16:15:23;;;;;;;14.27;2.80;;;17.70;99.90;;;;;;5009664;28;20053;-62
2021/05/11 16:17:48;;;;;;;8.35;2.13;;;17.90;99.90;;;;;;5010620;28;20157;-60
2021/05/11 16:20:14;;;;;;;11.18;2.05;;;18.00;99.90;;;;;;5010564;28;20113;-60
2021/05/11 16:22:41;;;;;;;7.78;1.75;;;18.00;99.90;;;;;;5012437;28;20081;-60
2021/05/11 16:25:09;;;;;;;15.35;2.08;;;17.90;99.90;;;;;;5013283;28;20053;-61
2021/05/11 16:27:36;;;;;;;16.65;2.28;;;17.90;99.90;;;;;;5011717;28;20365;-60
2021/05/11 16:30:02;;;;;;;9.90;2.08;;;17.80;99.90;;;;;;5012757;28;20127;-60
2021/05/11 16:32:28;;;;;;;11.98;2.10;;;17.80;99.90;;;;;;5013032;28;20042;-59
2021/05/11 16:34:54;;;;;;;10.70;2.05;;;17.70;99.90;;;;;;5016213;28;20037;-60
2021/05/11 16:37:19;;;;;;;7.00;2.05;;;17.50;99.90;;;;;;5013278;28;20049;-60
2021/05/11 16:39:45;;;;;;;10.98;1.77;;;17.50;99.90;;;;;;5012925;28;20038;-61
2021/05/11 16:42:11;;;;;;;6.95;1.88;;;17.40;99.90;;;;;;5013580;28;20100;-61
2021/05/11 16:44:37;;;;;;;7.10;1.75;;;17.30;99.90;;;;;;5011703;28;20379;-61
2021/05/11 16:47:04;;;;;;;5.72;1.98;;;17.40;99.90;;;;;;5011481;28;20507;-61
2021/05/11 16:49:30;;;;;;;10.77;2.08;;;17.40;99.90;;;;;;4994757;28;20476;-61
2021/05/11 16:51:56;;;;;;;10.52;2.22;;;17.40;99.90;;;;;;4999208;28;20049;-62
2021/05/11 16:54:22;;;;;;;6.32;2.03;;;17.30;99.90;;;;;;5012862;28;20128;-61
2021/05/11 16:56:48;;;;;;;9.77;2.00;;;17.20;99.90;;;;;;5012423;28;20440;-62
2021/05/11 16:59:14;;;;;;;7.28;1.90;;;17.20;99.90;;;;;;5011463;28;20074;-61
2021/05/11 17:01:40;;;;;;;7.28;1.80;;;17.30;99.90;;;;;;5013045;28;20042;-61
2021/05/11 17:04:06;;;;;;;5.32;1.70;;;17.20;99.90;;;;;;4994463;28;20042;-62
2021/05/11 17:06:33;;;;;;;9.63;1.80;;;17.10;99.90;;;;;;5012845;28;20034;-60
2021/05/11 17:09:00;;;;;;;17.60;2.67;;;17.10;99.90;;;;;;5011819;28;20056;-62
2021/05/11 17:11:26;;;;;;;13.18;2.88;;;17.00;99.90;;;;;;5012491;28;20034;-63
2021/05/11 17:13:52;;;;;;;6.18;1.92;;;16.90;99.90;;;;;;5008447;28;20072;-61
2021/05/11 17:16:18;;;;;;;11.13;2.30;;;16.80;99.90;;;;;;5012145;28;20038;-60
2021/05/11 17:18:44;;;;;;;6.20;1.80;;;16.80;99.90;;;;;;5010967;28;20033;-62